Temps Etape 1 et Heures de D├ępart Etape 2  
 
HeureConducteurAsaCoéquipierVoitureGroupeClassePénaTempsEcarts
10h401MICHEL SylvainSAVOIEDEGOUT JérômeSKODA Fabia R5RR5 1:03:13,0 
10h424CUOQ Jean-MarieARDECHEGRANDEMANGE MarielleCITROËN C4 WRCFA8W 1:03:18,4000:05,40
10h442DURBEC ThibaultVARRENUCCI Jacques-JulienCITROËN DS3 WRCA8W 1:03:23,1000:10,10
10h4614VATANEN MaxFinlandeGUIEU ChristopherHyundai i20 R5RR5 1:04:08,1000:55,10
10h4811FERAUD CyrilleGRASSEDUCHEMIN AymericCITROËN C4 WRCFA8W 1:04:40,3001:27,30
10h503BAUD LionelMONT-BLANCCRAEN FabienCITROËN DS3 WRCA8W 1:05:14,4002:01,40
10h5215DEJEAN PatrickSAINT-AFFRIQUECURRAT LionelFORD Fiesta R5RR5 1:06:27,5003:14,50
10h5417MORDACQ ArnaudDETROITVAUCLARE FrédéricMITSUBISHI Lancer Evo9FN4 1:06:51,5003:38,50
10h56144SABA RobertoArgentineOCAMPO ClaudioSKODA Fabia R5RR5 1:07:04,003:51,0
10h5822LAMOURET PaulCASTINEDELPECH FlorentMITSUBISHI Lancer Evo9FA8 1:09:20,5006:07,50
11h0041MARGAILLAN HugoSAINT-RAPHAËLPOUJOL SébastienPEUGEOT 208 VTIRR2 1:10:04,5006:51,50
11h0240ROSSEL YohanALESFULCRAND BenoîtPEUGEOT 208 VTIRR2 1:10:14,8007:01,80
11h0449BLANC François-XavierSAINT-AFFRIQUEDE TURCKEIM GillesPEUGEOT 208 VTIRR2 1:10:27,4007:14,40
11h0647GASCOU EmmanuelALESSALMON ValentinPEUGEOT 208 VTIRR2 1:10:34,7007:21,70
11h0845AL MUTAWAA MohammedEmiratsJOHNSTON AaronPEUGEOT 208 VTIRR2 1:10:51,6007:38,60
11h108PRINZIE StefaanBelgiqueVERMEULEN SharonSKODA Fabia R5RR5 1:10:53,7007:40,70
11h115LAPOUILLE HuguesDETROITDEVIENNE PhilippeCITROËN DS3 R5RR5 5:05:00,0Rallye 2
11h1220CLARETY JérômeCASTINELACOSTE VincentMITSUBISHI Lancer EvoXRR4 6:17:34,60Rallye 2
11h1321SALIN DanielROUTE D'ARGENTSALIN BrigitteSUBARU Impreza WRXRR4 4:40:25,10Rallye 2
11h1443ROSSEL LéoALESCORIA AlexandrePEUGEOT 208 VTIRR2 1:11:36,6008:23,60
11h1512CALMELS PierreSAINT-AFFRIQUEBOISSIERE FrédéricFORD Fiesta WRCA8W 1:11:56,8008:43,80
11h1610ROUSSET EricLOZEREDESCAMPS Jean-CharlesCITROËN Xsara WRCFA8W 4:16:21,50Rallye 2
11h1836ASTIER LoïcSAINT-RAPHAËLDINI GilbertCITROËN DS3 R3RR3 1:12:38,009:25,0
11h1966CACHOD SylvainLANGRESPOURCELOT AurélienCITROËN DS3 R3RR3 1:13:19,5010:06,50
11h2052MOLLARD AlexandreRHÔNEEYMIN NicolasPEUGEOT 208 VTIRR2 1:13:29,6010:16,60
11h2153FRANCESCHI MathieuGRASSEMANZO BenoîtFORD Fiesta R2JRR2J 1:13:34,9010:21,90
11h2248BAUDOIN ThomasSAINT-RAPHAËLBASSO MargotPEUGEOT 208 VTIRR2 1:13:40,2010:27,20
11h2344MAISANO BrandonGRASSEPEBEYRE PierrePEUGEOT 208 VTIRR2 5:20:38,0Rallye 2
11h2450ARTIERES NicolasSAINT-AFFRIQUEVINCENT FrédéricPEUGEOT 208 VTIRR2 5:36:32,70Rallye 2
11h2518MOREL Jean-LucMEDITERRANÉEGIDEL PhilippeSUBARU Impreza WRXFN440s1:13:47,1010:34,10
11h2625GIL StéphaneISTRESSAFFIOTI LionelSUBARU Impreza WRXFA8 1:14:08,5010:55,50
11h2755FOTIA AnthonyBÂTIMENT ET TRAVAUX PUBLICSSIRUGUE DidierFORD Fiesta R2JRR2J 1:14:08,9010:55,90
11h2834PARISI-FOUQUE AlainAIX EN PROVENCEMARSILY EricSUBARU ImprezaFA8 1:14:25,011:12,0
11h2976LOPEZ YannickISTRESLOPEZ BriceSUBARU Impreza WRXFN4 1:14:38,4011:25,40
11h3016CANAVESE UgoMARSEILLEBAUD LucieABARTH 124 RallyeGT+15 1:14:52,2011:39,20
11h3172AYRINHAC JérômeSAINT-AFFRIQUEAYRINHAC LaurentPEUGEOT 207 RcRR3 1:15:03,8011:50,80
11h3239FOURMAUX AdrienNORD DE LA FRANCEPARENT KévinFORD Fiesta R2TRR2 1:15:11,2011:58,20
11h3374FONTAINE FabienDRÔMEBARD JérômeMITSUBISHI Lancer Evo5FN4 1:15:18,9012:05,90
11h3431PERENON LaurentDAUPHINOISEDALLAY AurélieMITSUBISHI Lancer Evo6FA8 1:15:20,7012:07,70
11h3597GILHODES DamienSAINT-AFFRIQUEGILHODES Jean-LouisCITROËN Saxo T4FA6K 1:15:27,012:14,0
11h36107GIUSTI IgorTERRE DE CORSEBERNAL MatthieuFORD Fiesta R2RR2 1:15:50,9012:37,90
11h3770JOUINES RémiBITTEROISFONTAINE BastienPEUGEOT 207 RcRR3 1:15:55,7012:42,70
11h3879CAMPAGNOLI GabrieleItalieARENA NicolaSUBARU Impreza StiN4 1:16:06,3012:53,30
11h3929MAS PaulINGRESMAUREL LoïcMITSUBISHI Lancer Evo9FA8 1:16:11,2012:58,20
11h4062MATTEI DamienTERRE DE CORSEGAREL RomainFORD Fiesta R2JRR2J 1:16:51,8013:38,80
11h4182CHASSANIOL AdrienKART 63CUBIZOLLES ArnaudMITSUBISHI Lancer Evo9FN4 1:16:52,5013:39,50
11h4265CHAPUS SergeVIGNOBLE TARNAISFAVREAU MathieuCITROËN DS3 R3RR3 1:16:53,2013:40,20
11h4383DAZY Jean-PierreVINS MÂCONLOIZEAUX DidierRENAULT Clio RSF200014 1:16:58,2013:45,20
11h4458PONTAL JulienAIX EN PROVENCEBIAGETTI LoanFORD Fiesta R2JRR2J 1:17:05,9013:52,90
11h4532PUEL GérardROUTE D'ARGENTPUEL CarolineMITSUBISHI Lancer Evo8FA8 1:17:20,8014:07,80
11h4689VIALA JérômeSAINT-AFFRIQUEPONS BrunoPEUGEOT 206 RcF200014 1:17:26,2014:13,20
11h4778BERNARDONI LucMEDITERRANÉEFONTAINE BastienMITSUBISHI Lancer EvoXN4 1:18:05,9014:52,90
11h4854CARTIER VictorVINS MÂCONMURCIA LouFORD Fiesta R2JRR2J 1:18:21,1015:08,10
11h4930MORAES HenriMEDITERRANÉEMORAES AnthonySUBARU Impreza WRXFA8 1:18:51,8015:38,80
11h5023BLANCK LionelROUTE D'ARGENTBLANCK ArnaudMITSUBISHI Lancer Evo9FA850s1:18:54,9015:41,90
11h51126TRUCHET ChristopheMONTELIMARTRUCHET BarbaraPEUGEOT 106 S16F200013 1:19:01,2015:48,20
11h5296PAILLER JulienLuxembourgMICHELS PolCITROËN Saxo T4FA6K 1:19:02,3015:49,30
11h5384MOULIN FrançoisLOZEREBONNET DorineRENAULT Clio RSF200014 1:19:52,6016:39,60
11h5473POUCE SamuelCIRCUIT DU LUCPOUCE MehdiPEUGEOT 207 RcRR3 1:19:55,9016:42,90
11h55133SABATIER FlorentHAUTE VALLÉE DE LA LOIRESANTIAGO ThomasPEUGEOT 106 S16FA6 1:19:59,2016:46,20
11h56110ROCHER ArnaudLOZEREPAULHAN SabineRENAULT Clio RSFA7 1:20:04,1016:51,10
11h57128VAYSSE AdrienROUTE D'ARGENTLAURENS ClémentPEUGEOT 106 S16F200013 1:20:59,1017:46,10
11h58112FRELAUT YohannCASTINECASSAGNADE PascalPEUGEOT 206 RcFA7 1:21:29,4018:16,40
11h5991BONALDI XavierSAINT-AFFRIQUEBRENGUES JuliePEUGEOT 206 RcF200014 1:21:48,5018:35,50
12h00111VOISIN LionelCIGALOISEHONORÉ NicolasPEUGEOT 206 GtFA7 1:22:13,1019:00,10
12h0186ROUCOULY MathieuSAINT-AFFRIQUEMONNERON LionelPEUGEOT 309 GTIF200014 1:22:16,5019:03,50
12h0259JACQUELIN PierreALESDESNOYERS AlexiaFORD Fiesta R2JRR2J 1:23:13,020:00,0
12h0356LOUVEL HugoALESVIDA AlexandreFORD Fiesta R2JRR2J 4:25:43,70Rallye 2
12h0457MASSELIN RomainILE-DE-FRANCEBARRAL FlorianFORD Fiesta R2JRR2J 4:41:01,50Rallye 2
12h0564GILLET NicolasHAUTE PROVENCEMERCIER MarjorieFORD Fiesta R2JRR2J 6:12:34,60Rallye 2
12h06108GELLUSSEAU LucSPORT AUTO OCEANDE JOUX Charles-AntoinePEUGEOT 208 VTIRR2 1:23:17,020:04,0
12h0795PASSEMARD SébastienLOZEREFAUCOUIT SimonPEUGEOT 205 GTIF200014 1:23:45,6020:32,60
12h0887CLEMENT FrédéricSuissePIQUEREZ AlainPEUGEOT 206 RcF200014 1:23:55,2020:42,20
12h09117BELLIARDO DanielROUTE D'ARGENTFRAISEAU StéphanePEUGEOT 306 S16FN3 1:25:03,7021:50,70
12h10119RESSOUCHE CharlotteLOZERETURIERE FrédéricFORD Fiesta STFN3 6:17:34,60Rallye 2
12h11104BIAU Jean-LucSAINT-AFFRIQUEBROLIQUET EricPEUGEOT 206 XSFA6K 1:25:22,9022:09,90
12h12113LAGIER StéphaneCIGALOISENIEL LucasPEUGEOT 306 S16FA7 1:25:46,6022:33,60
12h13105BOURRIER LaurentCORBIERESSCHOSMAN BricePEUGEOT 206 XSFA6K 1:26:31,8023:18,80
12h1488PIAGNO MarcROUTE D'ARGENTGILHODES Anne-IsabellePEUGEOT 306 S16F200014 5:20:25,70Rallye 2
12h1590GRANSAGNE AlexandreROUTE D'ARGENTBOUDOU LudovicRENAULT Clio RSF200014 4:45:51,80Rallye 2
12h1694CHARRIE YoannSAINT-AFFRIQUECOUTRERAS KévinPEUGEOT 206 RcF2000141m0s1:27:00,9023:47,90
12h1767FRANCE JulienCASTINEMAZARGUIL PhilippeCITROËN DS3 R3RR3 1:27:13,8024:00,80
12h1826GLEY Jean-PierreLOZEREGLEY MadelineSUBARU Impreza GTFA8 1:27:17,6024:04,60
12h19136CHOQUER MickaëlAIX EN PROVENCEVOLPI CécileSUZUKI Swift SportFN2 1:27:22,3024:09,30
12h20103ARTZNER MathieuVINS MÂCONGIRARD VincentCITROËN Saxo T4FA6K 1:27:26,5024:13,50
12h21125RANDRIAMIFIDIMANANA LazaMadagascarRAKOTOMANGANIAINA Vahatra FitiaPEUGEOT 106 S16F2000131m50s1:28:19,4025:06,40
12h22142CASCIANI LudovicNICEBRAQUET ElysePEUGEOT 106 RallyeFN1 1:29:46,2026:33,20
12h23143VUITTENEZ VictorienTERRE ISSOISECOTE COLISSON MaximePEUGEOT 106 XSIFN1 5:26:54,60Rallye 2
12h2499GIRAUD GregoryDU VARCAULET-CAILHOL AmélieCITROËN Saxo T4FA6K 1:31:08,9027:55,90
12h2598MARCOBAL CantinALESPELAMOURGUES MarineCITROËN Saxo T4FA6K 6:17:34,60Rallye 2
12h26100ESPALIEU DavidCASTINENUNES RobertCITROËN Saxo T4FA6K 6:17:34,60Rallye 2
12h27101MAUREL AlainSAINT-AFFRIQUEMAUREL LucileCITROËN Saxo T4FA6K 5:08:06,90Rallye 2
12h28102LACRUZ OlivierHERAULTNAVARRO Marie-FranceCITROËN Saxo T4FA6K 4:26:19,40Rallye 2
12h29106SAUNIER AlexandreRHÔNEMAZALLON GwenaellePEUGEOT 206 XSFA6K 5:14:13,20Rallye 2
12h30115RAYMOND EricSAINT-AFFRIQUECHASSAN XavierPEUGEOT 206 RcFA7 1:31:39,3028:26,30
12h31114LESCURE PhilippeSAINT-AFFRIQUEESCAICH BertrandPEUGEOT 306 S16FA7 5:22:39,50Rallye 2
12h32135BRES VincentLOZEREMOURET NicolasPEUGEOT 106 S16FN2 1:32:56,3029:43,30
12h33137FRANÇOIS LéaLANGRESBENOIT AdelinePEUGEOT 106 S16FN2 1:33:31,8030:18,80
12h34134ALLEMAND Jean-FrançoisSAVOIEJOSSERAND AlexisPEUGEOT 106 S16FN2 5:24:08,70Rallye 2
12h35121BRENGUES Jean-MarieSAINT-AFFRIQUEBRENGUES MélaniePEUGEOT 205 GTIF20001320s1:35:39,032:26,0
12h36140FACCIO AlexandraROUTE D'ARGENTAGRON CamillePEUGEOT 106 XSIF200012 6:17:34,60Rallye 2
12h37141LEMAIRE YoannSAINT-AFFRIQUELAFON CyrilCITROËN Saxo VTSF200012 6:17:34,60Rallye 2
12h3868LAVAGNA FranckGRASSELETOURNEAU LaraCITROËN DS3 R3RR3 1:36:02,8032:49,80
12h3971MAUREL YvesSAINT-AFFRIQUEMAUREL MaximePEUGEOT 207 RcRR3 5:19:05,20Rallye 2
12h40132RAZAFITRIMO AndryROUTE D'ARGENTMONNIER AnthonyPEUGEOT 106 S16FA650s1:37:16,5034:03,50
12h41130RAKOTOMALALA AndryMadagascarPOMAREDE MarcPEUGEOT 106 RallyeFA6 1:49:08,2045:55,20
12h42131RAMEL OlivierSuisseBODENMANN Jacques-VictorPEUGEOT 106 S16FA6 6:17:34,60Rallye 2